Time;durP1;ratioP1;P1;durP2;ratioP2;P2;SDS_P1;SDS_P2;PMS_P1;PMS_P2;Temp;Humidity;BMP_temperature;BMP_pressure;BME280_temperature;BME280_humidity;BME280_pressure;Samples;Min_cycle;Max_cycle;Signal;HPM_P1;HPM_P2
2021/05/02 00:00:01;;;;;;;;;;;;;;;18.06;66.12;100278.91;5034850;28;1122;-55
2021/05/02 00:02:27;;;;;;;;;;;;;;;18.06;65.39;100294.09;5034355;28;1506;-55
2021/05/02 00:04:53;;;;;;;;;;;;;;;18.08;65.98;100290.31;5034614;28;1078;-55
2021/05/02 00:07:20;;;;;;;;;;;;;;;18.08;65.98;100284.97;5034990;28;1098;-55
2021/05/02 00:09:46;;;;;;;;;;;;;;;18.06;66.01;100281.59;5034612;28;1067;-55
2021/05/02 00:12:12;;;;;;;;;;;;;;;18.07;65.54;100293.13;5034575;28;1261;-55
2021/05/02 00:14:38;;;;;;;;;;;;;;;18.11;65.93;100299.91;5034944;28;1070;-55
2021/05/02 00:17:06;;;;;;;;;;;;;;;18.07;65.33;100285.09;5034589;28;1910;-54
2021/05/02 00:19:33;;;;;;;;;;;;;;;18.08;65.50;100294.81;5034539;28;1099;-55
2021/05/02 00:22:00;;;;;;;;;;;;;;;18.08;65.33;100294.81;5035047;28;1980;-55
2021/05/02 00:24:26;;;;;;;;;;;;;;;18.07;65.89;100293.97;5034663;28;1231;-55
2021/05/02 00:26:53;;;;;;;;;;;;;;;18.08;65.87;100305.50;5034924;28;1082;-55
2021/05/02 00:29:20;;;;;;;;;;;;;;;18.08;65.90;100300.16;5034821;28;1046;-55
2021/05/02 00:31:47;;;;;;;;;;;;;;;18.06;65.67;100299.47;5034758;28;988;-56
2021/05/02 00:34:13;;;;;;;;;;;;;;;18.07;65.43;100295.81;5034849;28;991;-55
2021/05/02 00:36:39;;;;;;;;;;;;;;;18.07;65.88;100288.63;5034729;28;1073;-55
2021/05/02 00:39:06;;;;;;;;;;;;;;;18.06;65.41;100262.00;5034625;28;1971;-55
2021/05/02 00:41:33;;;;;;;;;;;;;;;18.05;65.99;100242.44;5034698;28;1056;-55
2021/05/02 00:44:02;;;;;;;;;;;;;;;18.05;65.46;100238.91;5034805;28;2168;-55
2021/05/02 00:46:33;;;;;;;;;;;;;;;18.03;66.02;100238.22;5034695;28;999;-55
2021/05/02 00:49:03;;;;;;;;;;;;;;;18.05;65.93;100229.06;5034662;28;946;-55
2021/05/02 00:51:30;;;;;;;;;;;;;;;18.05;65.79;100245.09;5034618;28;983;-55
2021/05/02 00:54:15;;;;;;;;;;;;;;;18.07;65.95;100245.81;5034638;28;1007;-56
2021/05/02 00:56:46;;;;;;;;;;;;;;;18.05;65.96;100245.09;5034536;28;1065;-55
2021/05/02 00:59:18;;;;;;;;;;;;;;;18.08;65.49;100254.66;5034161;28;1969;-55
2021/05/02 01:01:49;;;;;;;;;;;;;;;18.06;65.53;100238.78;5034352;28;1485;-55
2021/05/02 01:04:19;;;;;;;;;;;;;;;18.07;65.80;100253.84;5034300;28;1122;-55
2021/05/02 01:06:46;;;;;;;;;;;;;;;18.07;66.16;100253.00;5034213;28;1091;-55
2021/05/02 01:09:16;;;;;;;;;;;;;;;18.08;65.62;100265.38;5034082;28;1296;-55
2021/05/02 01:11:42;;;;;;;;;;;;;;;18.03;65.29;100248.91;5034048;28;1205;-55
2021/05/02 01:14:11;;;;;;;;;;;;;;;18.04;66.18;100250.59;5034697;28;979;-55
2021/05/02 01:16:39;;;;;;;;;;;;;;;18.07;65.89;100244.97;5038155;28;974;-55
2021/05/02 01:19:08;;;;;;;;;;;;;;;18.05;65.63;100241.59;5037696;28;1906;-55
2021/05/02 01:21:36;;;;;;;;;;;;;;;18.04;65.99;100240.72;5037772;28;1107;-55
2021/05/02 01:24:07;;;;;;;;;;;;;;;18.05;65.81;100238.91;5037712;28;1169;-55
2021/05/02 01:26:35;;;;;;;;;;;;;;;18.05;66.18;100222.88;5037895;28;1073;-55
2021/05/02 01:29:00;;;;;;;;;;;;;;;18.04;65.67;100222.00;5037875;28;974;-55
2021/05/02 01:31:27;;;;;;;;;;;;;;;18.03;65.88;100212.31;5037829;28;1061;-55
2021/05/02 01:33:54;;;;;;;;;;;;;;;18.04;66.22;100205.13;5037608;28;1090;-55
2021/05/02 01:36:20;;;;;;;;;;;;;;;18.03;65.56;100206.13;5037716;28;959;-56
2021/05/02 01:38:48;;;;;;;;;;;;;;;18.03;65.63;100190.91;5037399;28;1979;-55
2021/05/02 01:41:15;;;;;;;;;;;;;;;18.05;66.13;100194.28;5037726;28;1059;-55
2021/05/02 01:43:41;;;;;;;;;;;;;;;18.03;65.92;100187.38;5037576;28;989;-55
2021/05/02 01:46:07;;;;;;;;;;;;;;;18.05;66.09;100196.13;5037389;28;1067;-55
2021/05/02 01:48:33;;;;;;;;;;;;;;;18.02;66.15;100189.19;5037689;28;1862;-55
2021/05/02 01:51:00;;;;;;;;;;;;;;;18.04;65.56;100197.09;5037168;28;1059;-55
2021/05/02 01:53:27;;;;;;;;;;;;;;;18.00;65.78;100193.84;5037525;28;1006;-55
2021/05/02 01:55:54;;;;;;;;;;;;;;;18.04;66.14;100186.38;5037365;28;1051;-55
2021/05/02 01:58:21;;;;;;;;;;;;;;;18.01;65.80;100167.97;5037328;28;1906;-55
2021/05/02 02:01:13;;;;;;;;;;;;;;;18.02;66.04;100172.31;5040882;23;2014;-45
2021/05/02 02:03:40;;;;;;;;;;;;;;;18.03;65.72;100174.00;4995955;28;1797;-44
2021/05/02 02:06:07;;;;;;;;;;;;;;;18.01;65.87;100173.31;4996580;28;1077;-44
2021/05/02 02:08:33;;;;;;;;;;;;;;;18.02;65.95;100158.94;4996172;28;1163;-44
2021/05/02 02:10:59;;;;;;;;;;;;;;;18.03;65.77;100182.03;5010696;23;3582;-54
2021/05/02 02:13:26;;;;;;;;;;;;;;;18.04;66.13;100171.16;4997007;28;1026;-55
2021/05/02 02:15:52;;;;;;;;;;;;;;;18.01;65.75;100165.28;4997712;28;976;-55
2021/05/02 02:18:18;;;;;;;;;;;;;;;18.03;66.20;100166.81;4997552;28;1906;-55
2021/05/02 02:20:45;;;;;;;;;;;;;;;18.00;66.21;100152.88;4997530;28;999;-56
2021/05/02 02:23:15;;;;;;;;;;;;;;;18.01;66.00;100168.78;4997539;28;1110;-55
2021/05/02 02:25:42;;;;;;;;;;;;;;;17.98;65.63;100154.84;4996711;28;1035;-55
2021/05/02 02:28:10;;;;;;;;;;;;;;;18.02;66.03;100150.91;4997080;28;1094;-55
2021/05/02 02:30:38;;;;;;;;;;;;;;;18.00;65.58;100148.38;4997397;28;1126;-55
2021/05/02 02:33:05;;;;;;;;;;;;;;;18.01;66.10;100135.84;4997351;28;1012;-55
2021/05/02 02:35:32;;;;;;;;;;;;;;;18.01;66.01;100133.19;4997386;28;975;-54
2021/05/02 02:37:58;;;;;;;;;;;;;;;18.02;66.26;100126.81;4997249;28;1903;-55
2021/05/02 02:40:24;;;;;;;;;;;;;;;18.02;66.17;100126.81;4997304;28;983;-55
2021/05/02 02:42:51;;;;;;;;;;;;;;;18.01;65.67;100127.81;4997243;28;1068;-55
2021/05/02 02:45:17;;;;;;;;;;;;;;;17.99;66.12;100124.47;4997082;28;986;-55
2021/05/02 02:47:46;;;;;;;;;;;;;;;18.02;66.21;100138.38;4997084;28;1067;-54
2021/05/02 02:50:13;;;;;;;;;;;;;;;17.99;66.04;100125.28;4996737;28;1023;-55
2021/05/02 02:52:42;;;;;;;;;;;;;;;18.02;66.40;100134.84;4997001;28;951;-55
2021/05/02 02:55:09;;;;;;;;;;;;;;;18.00;65.91;100126.13;4996653;28;1988;-55
2021/05/02 02:57:37;;;;;;;;;;;;;;;18.01;66.30;100128.66;4996577;28;1976;-55
2021/05/02 03:00:04;;;;;;;;;;;;;;;17.99;65.50;100124.47;4996585;28;1064;-55
2021/05/02 03:02:31;;;;;;;;;;;;;;;18.02;66.38;100129.50;4996445;28;1494;-55
2021/05/02 03:04:59;;;;;;;;;;;;;;;18.00;65.66;100123.44;4996611;28;1050;-55
2021/05/02 03:07:25;;;;;;;;;;;;;;;17.98;66.03;100122.75;4996348;28;1055;-55
2021/05/02 03:09:52;;;;;;;;;;;;;;;18.00;65.71;100129.63;4996714;28;1042;-55
2021/05/02 03:12:21;;;;;;;;;;;;;;;17.97;65.97;100129.94;4996161;28;1104;-55
2021/05/02 03:14:49;;;;;;;;;;;;;;;18.00;66.01;100131.47;4996165;28;1210;-54
2021/05/02 03:17:18;;;;;;;;;;;;;;;17.99;65.75;100133.31;4995998;28;1977;-55
2021/05/02 03:19:49;;;;;;;;;;;;;;;17.99;66.00;100135.16;4996442;28;1077;-56
2021/05/02 03:22:19;;;;;;;;;;;;;;;17.96;65.88;100125.56;4996079;28;1048;-55
2021/05/02 03:24:48;;;;;;;;;;;;;;;18.00;65.81;100134.16;4996349;28;1113;-55
2021/05/02 03:27:18;;;;;;;;;;;;;;;18.01;66.35;100143.88;4995972;28;1075;-55
2021/05/02 03:29:47;;;;;;;;;;;;;;;17.99;65.97;100136.00;4996207;28;979;-55
2021/05/02 03:32:13;;;;;;;;;;;;;;;18.01;65.72;100133.19;4995917;28;1036;-55
2021/05/02 03:34:41;;;;;;;;;;;;;;;17.99;65.88;100129.81;4996289;28;1007;-55
2021/05/02 03:37:10;;;;;;;;;;;;;;;17.98;66.33;100128.09;4995571;28;1043;-55
2021/05/02 03:39:37;;;;;;;;;;;;;;;18.01;66.18;100138.53;4996167;28;1019;-55
2021/05/02 03:42:03;;;;;;;;;;;;;;;18.00;65.62;100131.47;4995980;28;1011;-54
2021/05/02 03:44:29;;;;;;;;;;;;;;;18.01;66.05;100128.66;4996088;28;1067;-54
2021/05/02 03:46:55;;;;;;;;;;;;;;;18.02;65.70;100119.63;4995750;28;1226;-55
2021/05/02 03:49:21;;;;;;;;;;;;;;;18.02;65.59;100113.44;4996109;28;1054;-54
2021/05/02 03:51:47;;;;;;;;;;;;;;;18.00;65.73;100110.06;4995604;28;1150;-55
2021/05/02 03:54:13;;;;;;;;;;;;;;;18.03;65.78;100110.63;4995935;28;1888;-55
2021/05/02 03:56:41;;;;;;;;;;;;;;;18.07;65.74;100111.19;4995947;28;1007;-55
2021/05/02 03:59:11;;;;;;;;;;;;;;;18.07;65.59;100117.38;4995412;28;1983;-55
2021/05/02 04:01:37;;;;;;;;;;;;;;;18.08;65.38;100113.72;4995733;28;1466;-55
2021/05/02 04:04:03;;;;;;;;;;;;;;;18.20;65.40;100125.06;4995827;28;1063;-55
2021/05/02 04:06:29;;;;;;;;;;;;;;;18.28;64.82;100119.00;4995752;28;987;-54
2021/05/02 04:08:55;;;;;;;;;;;;;;;18.42;64.40;100125.69;4995643;28;1077;-55
2021/05/02 04:11:21;;;;;;;;;;;;;;;18.48;64.41;100127.78;4995467;28;1203;-55
2021/05/02 04:13:48;;;;;;;;;;;;;;;18.62;63.58;100121.09;4995415;28;1043;-56
2021/05/02 04:16:14;;;;;;;;;;;;;;;18.74;63.58;100135.13;4995389;28;1035;-55
2021/05/02 04:18:40;;;;;;;;;;;;;;;18.87;63.15;100141.03;4995512;28;1906;-55
2021/05/02 04:21:06;;;;;;;;;;;;;;;19.00;62.65;100136.16;4995629;28;1066;-55
2021/05/02 04:23:33;;;;;;;;;;;;;;;19.24;61.36;100142.78;4995264;28;1083;-56
2021/05/02 04:25:59;;;;;;;;;;;;;;;18.52;64.16;100139.88;4995564;28;983;-55
2021/05/02 04:28:25;;;;;;;;;;;;;;;18.81;63.26;100142.47;4995461;28;979;-55
2021/05/02 04:30:52;;;;;;;;;;;;;;;18.33;64.72;100135.47;4995194;28;1067;-55
2021/05/02 04:33:17;;;;;;;;;;;;;;;18.24;65.10;100139.00;4995092;28;1115;-55
2021/05/02 04:35:43;;;;;;;;;;;;;;;18.18;65.45;100134.25;4995464;28;983;-54
2021/05/02 04:38:09;;;;;;;;;;;;;;;18.15;65.37;100126.53;4995390;28;1982;-55
2021/05/02 04:40:35;;;;;;;;;;;;;;;18.14;65.41;100128.34;4995124;28;1059;-55
2021/05/02 04:43:01;;;;;;;;;;;;;;;18.15;65.15;100135.38;4995320;28;1031;-55
2021/05/02 04:45:27;;;;;;;;;;;;;;;18.15;65.54;100132.72;4995037;28;1139;-55
2021/05/02 04:47:54;;;;;;;;;;;;;;;18.13;65.49;100125.81;4995324;28;1078;-55
2021/05/02 04:50:20;;;;;;;;;;;;;;;18.13;65.63;100125.81;4997626;28;1065;-55
2021/05/02 04:52:46;;;;;;;;;;;;;;;18.15;65.40;100119.34;4998859;28;1197;-55
2021/05/02 04:55:12;;;;;;;;;;;;;;;18.19;65.41;100117.22;4999593;28;991;-55
2021/05/02 04:57:38;;;;;;;;;;;;;;;18.22;65.52;100135.63;4998811;28;1910;-55
2021/05/02 05:00:06;;;;;;;;;;;;;;;18.19;65.41;100123.41;4999111;28;1054;-55
2021/05/02 05:02:32;;;;;;;;;;;;;;;18.23;65.23;100121.28;4998698;28;1412;-55
2021/05/02 05:04:59;;;;;;;;;;;;;;;18.17;65.42;100117.34;4999011;28;1171;-55
2021/05/02 05:07:25;;;;;;;;;;;;;;;18.28;65.10;100119.00;4998693;28;986;-55
2021/05/02 05:09:51;;;;;;;;;;;;;;;18.28;65.02;100108.28;4998938;28;980;-55
2021/05/02 05:12:17;;;;;;;;;;;;;;;18.25;65.12;100105.91;4998449;28;1237;-55
2021/05/02 05:14:43;;;;;;;;;;;;;;;18.29;64.79;100129.56;4998495;28;1158;-55
2021/05/02 05:17:09;;;;;;;;;;;;;;;18.32;64.97;100120.38;4998714;28;1006;-55
2021/05/02 05:19:35;;;;;;;;;;;;;;;18.31;64.93;100115.19;4998288;28;1967;-55
2021/05/02 05:22:03;;;;;;;;;;;;;;;18.34;65.07;100120.25;4998743;28;999;-55
2021/05/02 05:24:28;;;;;;;;;;;;;;;18.37;64.81;100111.94;4998526;28;972;-55
2021/05/02 05:26:54;;;;;;;;;;;;;;;18.42;64.68;100121.22;4998359;28;1119;-55
2021/05/02 05:29:20;;;;;;;;;;;;;;;18.44;64.57;100116.56;4998493;28;948;-55
2021/05/02 05:31:46;;;;;;;;;;;;;;;18.39;64.71;100118.81;4998631;28;1873;-55
2021/05/02 05:34:12;;;;;;;;;;;;;;;18.47;64.59;100121.59;4998554;28;984;-55
2021/05/02 05:36:38;;;;;;;;;;;;;;;18.53;64.37;100111.31;4998320;28;1069;-55
2021/05/02 05:39:05;;;;;;;;;;;;;;;18.49;64.38;100095.53;4998370;28;1910;-55
2021/05/02 05:41:31;;;;;;;;;;;;;;;18.51;64.35;100089.19;4998277;28;983;-55
2021/05/02 05:43:57;;;;;;;;;;;;;;;18.49;64.45;100095.53;4998344;28;1076;-55
2021/05/02 05:46:23;;;;;;;;;;;;;;;18.49;64.75;100094.69;4998009;28;1063;-55
2021/05/02 05:48:49;;;;;;;;;;;;;;;18.54;64.23;100089.72;4998244;28;1070;-55
2021/05/02 05:51:15;;;;;;;;;;;;;;;18.57;64.33;100091.28;4998221;28;999;-55
2021/05/02 05:53:41;;;;;;;;;;;;;;;18.58;64.27;100115.22;4998134;28;1063;-55
2021/05/02 05:56:08;;;;;;;;;;;;;;;18.60;64.25;100097.19;4998084;28;1082;-55
2021/05/02 05:58:34;;;;;;;;;;;;;;;18.56;64.08;100090.44;4997712;28;1910;-55
2021/05/02 06:01:00;;;;;;;;;;;;;;;18.57;64.20;100094.78;4996627;28;983;-55
2021/05/02 06:03:26;;;;;;;;;;;;;;;18.55;64.50;100083.38;4997686;28;1512;-55
2021/05/02 06:05:52;;;;;;;;;;;;;;;18.59;64.48;100083.94;4997909;28;1002;-54
2021/05/02 06:08:18;;;;;;;;;;;;;;;18.59;64.36;100067.88;4997596;28;1130;-55
2021/05/02 06:10:44;;;;;;;;;;;;;;;18.55;64.68;100061.97;4997560;28;1161;-54
2021/05/02 06:13:11;;;;;;;;;;;;;;;18.56;64.54;100069.00;4997462;28;1063;-55
2021/05/02 06:15:37;;;;;;;;;;;;;;;18.53;64.94;100069.28;4997829;28;1039;-55
2021/05/02 06:18:03;;;;;;;;;;;;;;;18.53;64.82;100063.09;4997578;28;1975;-55
2021/05/02 06:20:29;;;;;;;;;;;;;;;18.51;64.71;100059.75;4997385;28;1233;-55
2021/05/02 06:22:55;;;;;;;;;;;;;;;18.50;64.83;100056.19;4997686;28;1064;-55
2021/05/02 06:25:21;;;;;;;;;;;;;;;18.53;64.68;100047.88;4997562;28;1043;-55
2021/05/02 06:27:47;;;;;;;;;;;;;;;18.59;64.60;100041.91;4997487;28;999;-55
2021/05/02 06:30:14;;;;;;;;;;;;;;;18.59;64.58;100046.44;4997171;28;1103;-55
2021/05/02 06:32:40;;;;;;;;;;;;;;;18.57;64.75;100043.91;4997402;28;1883;-55
2021/05/02 06:35:07;;;;;;;;;;;;;;;18.59;64.53;100041.09;4997394;28;1144;-55
2021/05/02 06:37:33;;;;;;;;;;;;;;;18.55;64.60;100035.19;4997315;28;1906;-55
2021/05/02 06:39:59;;;;;;;;;;;;;;;18.55;64.90;100034.34;4996992;28;1215;-55
2021/05/02 06:42:25;;;;;;;;;;;;;;;18.54;64.81;100033.47;4997249;28;983;-55
2021/05/02 06:44:51;;;;;;;;;;;;;;;18.50;64.83;100026.75;4997151;28;1061;-55
2021/05/02 06:47:18;;;;;;;;;;;;;;;18.49;64.64;100025.06;4997275;28;1870;-55
2021/05/02 06:49:44;;;;;;;;;;;;;;;18.49;64.95;100030.44;4997072;28;968;-55
2021/05/02 06:52:10;;;;;;;;;;;;;;;18.52;64.81;100040.81;4997098;28;1007;-55
2021/05/02 06:54:36;;;;;;;;;;;;;;;18.52;64.79;100046.19;4996680;28;1055;-55
2021/05/02 06:57:02;;;;;;;;;;;;;;;18.57;64.66;100048.44;4996950;28;1064;-55
2021/05/02 06:59:28;;;;;;;;;;;;;;;18.59;64.49;100036.56;4996541;28;1975;-55
2021/05/02 07:01:54;;;;;;;;;;;;;;;18.60;64.48;100046.28;4996805;28;1489;-55
2021/05/02 07:04:21;;;;;;;;;;;;;;;18.59;64.65;100041.91;4996717;28;1894;-55
2021/05/02 07:06:47;;;;;;;;;;;;;;;18.59;64.67;100041.09;4996740;28;1004;-55
2021/05/02 07:09:13;;;;;;;;;;;;;;;18.57;64.80;100035.88;4996721;28;1035;-55
2021/05/02 07:11:39;;;;;;;;;;;;;;;18.56;64.73;100036.88;4996225;28;1115;-56
2021/05/02 07:14:05;;;;;;;;;;;;;;;18.57;64.92;100040.38;4996575;28;1982;-55
2021/05/02 07:16:31;;;;;;;;;;;;;;;18.54;65.01;100046.88;4996744;28;1983;-55
2021/05/02 07:18:57;;;;;;;;;;;;;;;18.54;65.24;100049.53;4996295;28;1993;-55
2021/05/02 07:21:24;;;;;;;;;;;;;;;18.53;64.90;100053.22;4996469;28;1059;-55
2021/05/02 07:23:50;;;;;;;;;;;;;;;18.53;65.11;100058.59;4996214;28;1043;-55
2021/05/02 07:26:17;;;;;;;;;;;;;;;18.53;64.90;100044.38;4996385;28;1081;-55
2021/05/02 07:28:43;;;;;;;;;;;;;;;18.56;64.90;100047.59;4996443;28;987;-55
2021/05/02 07:31:10;;;;;;;;;;;;;;;18.57;65.00;100049.25;4995999;28;1234;-55
2021/05/02 07:33:36;;;;;;;;;;;;;;;18.60;64.72;100038.25;4995993;28;1048;-55
2021/05/02 07:36:02;;;;;;;;;;;;;;;18.58;64.89;100034.91;4996231;28;987;-56
2021/05/02 07:38:29;;;;;;;;;;;;;;;18.54;65.02;100029.97;4995797;28;1981;-55
2021/05/02 07:40:55;;;;;;;;;;;;;;;18.55;64.85;100040.53;4996237;28;986;-55
2021/05/02 07:43:22;;;;;;;;;;;;;;;18.52;64.82;100030.09;4995755;28;1126;-55
2021/05/02 07:45:48;;;;;;;;;;;;;;;18.51;65.24;100032.97;4995769;28;1230;-55
2021/05/02 07:48:14;;;;;;;;;;;;;;;18.52;65.04;100035.47;4995804;28;1137;-55
2021/05/02 07:50:41;;;;;;;;;;;;;;;18.56;64.78;100044.91;4995968;28;1001;-54
2021/05/02 07:53:07;;;;;;;;;;;;;;;18.53;64.93;100045.19;4995798;28;1062;-55
2021/05/02 07:55:34;;;;;;;;;;;;;;;18.56;64.88;100047.59;4995871;28;986;-55
2021/05/02 07:58:00;;;;;;;;;;;;;;;18.58;64.91;100056.31;4995887;28;1985;-55
2021/05/02 08:00:27;;;;;;;;;;;;;;;18.57;64.92;100049.25;4995572;28;1068;-55
2021/05/02 08:02:53;;;;;;;;;;;;;;;18.56;65.00;100038.69;4995479;28;1409;-55
2021/05/02 08:05:19;;;;;;;;;;;;;;;18.57;65.08;100038.56;4995749;28;1007;-56
2021/05/02 08:07:45;;;;;;;;;;;;;;;18.54;64.71;100036.16;4995683;28;1996;-55
2021/05/02 08:10:12;;;;;;;;;;;;;;;18.52;64.98;100043.50;4995646;28;1073;-55
2021/05/02 08:12:39;;;;;;;;;;;;;;;18.54;65.29;100046.88;4995714;28;976;-55
2021/05/02 08:15:06;;;;;;;;;;;;;;;18.57;64.95;100049.25;4995247;28;1056;-55
2021/05/02 08:17:32;;;;;;;;;;;;;;;18.58;64.86;100039.38;4995542;28;1056;-56
2021/05/02 08:19:58;;;;;;;;;;;;;;;18.55;64.95;100034.34;4995280;28;1969;-55
2021/05/02 08:22:24;;;;;;;;;;;;;;;18.56;65.06;100042.25;4995630;28;1003;-56
2021/05/02 08:24:50;;;;;;;;;;;;;;;18.57;64.90;100038.56;4994786;28;991;-55
2021/05/02 08:27:16;;;;;;;;;;;;;;;18.60;64.86;100043.63;4995525;28;1074;-55
2021/05/02 08:29:43;;;;;;;;;;;;;;;18.60;64.77;100045.44;4995481;28;1057;-56
2021/05/02 08:32:09;;;;;;;;;;;;;;;18.60;65.00;100040.06;4995465;28;1053;-55
2021/05/02 08:34:35;;;;;;;;;;;;;;;18.60;65.01;100038.25;4995418;28;1074;-55
2021/05/02 08:37:01;;;;;;;;;;;;;;;18.63;64.71;100029.91;4995446;28;1082;-56
2021/05/02 08:39:27;;;;;;;;;;;;;;;18.62;64.82;100030.91;4995298;28;1978;-56
2021/05/02 08:41:53;;;;;;;;;;;;;;;18.65;64.89;100041.31;4995434;28;967;-55
2021/05/02 08:44:23;;;;;;;;;;;;;;;18.66;64.61;100026.94;4995456;28;983;-55
2021/05/02 08:46:50;;;;;;;;;;;;;;;18.62;64.92;100035.41;4995413;28;1063;-55
2021/05/02 08:49:18;;;;;;;;;;;;;;;18.68;64.99;100032.13;4995311;28;974;-55
2021/05/02 08:51:44;;;;;;;;;;;;;;;18.63;64.83;100029.91;4995367;28;987;-55
2021/05/02 08:54:10;;;;;;;;;;;;;;;18.65;64.92;100035.13;4995270;28;1064;-55
2021/05/02 08:56:36;;;;;;;;;;;;;;;18.62;64.94;100028.25;4994956;28;1083;-56
2021/05/02 08:59:02;;;;;;;;;;;;;;;18.64;64.93;100039.66;4995229;28;1977;-55
2021/05/02 09:01:28;;;;;;;;;;;;;;;18.63;64.85;100029.91;4995120;28;1505;-56
2021/05/02 09:03:55;;;;;;;;;;;;;;;18.63;65.07;100021.03;4994935;28;1033;-55
2021/05/02 09:06:23;;;;;;;;;;;;;;;18.63;65.12;100029.91;4994841;28;1112;-55
2021/05/02 09:08:50;;;;;;;;;;;;;;;18.63;64.94;100029.06;4994881;28;1242;-55
2021/05/02 09:11:29;;;;;;;;;;;;;;;18.65;65.00;100019.06;4994885;28;1073;-55
2021/05/02 09:13:55;;;;;;;;;;;;;;;18.64;64.98;100026.25;4995095;28;1007;-55
2021/05/02 09:16:21;;;;;;;;;;;;;;;18.64;64.99;100028.94;4995142;28;915;-55
2021/05/02 09:18:49;;;;;;;;;;;;;;;18.65;65.03;100022.56;4994991;28;1977;-55
2021/05/02 09:21:17;;;;;;;;;;;;;;;18.61;65.03;100018.50;4994765;28;1095;-55
2021/05/02 09:23:43;;;;;;;;;;;;;;;18.64;65.01;100039.66;4994750;28;1110;-56
2021/05/02 09:26:17;;;;;;;;;;;;;;;18.65;64.94;100048.50;4995094;28;1298;-55
2021/05/02 09:28:45;;;;;;;;;;;;;;;18.69;65.23;100049.91;4994788;28;1114;-55
2021/05/02 09:31:13;;;;;;;;;;;;;;;18.69;65.02;100064.13;4994988;28;1053;-55
2021/05/02 09:33:39;;;;;;;;;;;;;;;18.68;65.31;100062.44;4995049;28;1077;-55
2021/05/02 09:36:09;;;;;;;;;;;;;;;18.68;65.16;100061.59;4996619;28;1057;-55
2021/05/02 09:38:37;;;;;;;;;;;;;;;18.66;64.99;100055.53;4998350;28;1910;-55
2021/05/02 09:41:04;;;;;;;;;;;;;;;18.67;65.24;100054.56;4998159;28;1064;-55
2021/05/02 09:43:31;;;;;;;;;;;;;;;18.66;65.13;100055.53;4998368;28;1079;-55
2021/05/02 09:46:23;;;;;;;;;;;;;;;18.67;64.95;100066.09;4998352;28;1089;-56
2021/05/02 09:48:50;;;;;;;;;;;;;;;18.67;64.78;100058.06;4993109;28;1715;-55
2021/05/02 09:51:16;;;;;;;;;;;;;;;18.69;65.14;100053.41;4998303;28;1073;-55
2021/05/02 09:53:56;;;;;;;;;;;;;;;18.64;65.10;100054.84;4998132;28;982;-55
2021/05/02 09:56:22;;;;;;;;;;;;;;;18.64;65.12;100055.72;4998178;28;1062;-55
2021/05/02 09:58:48;;;;;;;;;;;;;;;18.65;65.26;100060.06;4997858;28;1906;-55
2021/05/02 10:01:16;;;;;;;;;;;;;;;18.65;65.16;100061.91;4997962;28;1467;-55
2021/05/02 10:03:50;;;;;;;;;;;;;;;18.65;65.34;100062.75;4997950;28;1035;-56
2021/05/02 10:06:28;;;;;;;;;;;;;;;18.71;65.12;100057.78;4997900;28;1081;-55
2021/05/02 10:08:55;;;;;;;;;;;;;;;18.66;65.07;100053.72;4997841;28;1070;-55
2021/05/02 10:11:23;;;;;;;;;;;;;;;18.68;65.16;100046.38;4997539;28;1167;-55
2021/05/02 10:13:49;;;;;;;;;;;;;;;18.66;65.04;100043.00;4997522;28;1031;-55
2021/05/02 10:16:15;;;;;;;;;;;;;;;18.66;65.30;100043.00;4997796;28;1071;-55
2021/05/02 10:18:41;;;;;;;;;;;;;;;18.62;65.23;100047.00;4997629;28;1906;-55
2021/05/02 10:21:09;;;;;;;;;;;;;;;18.68;65.26;100057.09;4997611;28;1059;-55
2021/05/02 10:23:35;;;;;;;;;;;;;;;18.65;65.15;100057.38;4997679;28;1053;-55
2021/05/02 10:26:02;;;;;;;;;;;;;;;18.66;65.22;100050.19;4997500;28;1026;-55
2021/05/02 10:28:29;;;;;;;;;;;;;;;18.65;65.22;100046.66;4997559;28;986;-55
2021/05/02 10:30:57;;;;;;;;;;;;;;;18.65;65.19;100044.00;4997181;28;1047;-56
2021/05/02 10:33:34;;;;;;;;;;;;;;;18.63;65.30;100043.28;4997424;28;1073;-55
2021/05/02 10:36:01;;;;;;;;;;;;;;;18.64;65.34;100050.34;4997099;28;1091;-55
2021/05/02 10:38:45;;;;;;;;;;;;;;;18.65;65.34;100052.03;4997441;28;1906;-55
2021/05/02 10:41:28;;;;;;;;;;;;;;;18.65;65.22;100048.50;4997229;28;1043;-56
2021/05/02 10:43:54;;;;;;;;;;;;;;;18.65;65.13;100046.66;4996961;28;1072;-55
2021/05/02 10:46:39;;;;;;;;;;;;;;;18.68;65.12;100048.19;4997160;28;1046;-55
2021/05/02 10:49:05;;;;;;;;;;;;;;;18.68;65.08;100049.06;4996849;28;930;-55
2021/05/02 10:51:32;;;;;;;;;;;;;;;18.71;65.10;100055.09;4997112;28;983;-56
2021/05/02 10:54:16;;;;;;;;;;;;;;;18.70;65.19;100043.53;4997011;28;1023;-56
2021/05/02 10:56:46;;;;;;;;;;;;;;;18.68;65.18;100045.50;4996672;28;1088;-55
2021/05/02 10:59:12;;;;;;;;;;;;;;;18.71;65.26;100049.75;4996865;28;1981;-56
2021/05/02 11:01:38;;;;;;;;;;;;;;;18.69;65.01;100047.22;4996518;28;1377;-55
2021/05/02 11:04:05;;;;;;;;;;;;;;;18.68;65.18;100035.66;4996614;28;1028;-55
2021/05/02 11:06:54;;;;;;;;;;;;;;;18.69;65.08;100053.41;4996792;28;1053;-55
2021/05/02 11:09:22;;;;;;;;;;;;;;;18.68;65.11;100033.00;4996636;28;979;-56
2021/05/02 11:11:50;;;;;;;;;;;;;;;18.67;65.35;100050.03;4996190;28;1123;-56
2021/05/02 11:14:30;;;;;;;;;;;;;;;18.68;65.32;100050.88;4996391;28;1063;-55
2021/05/02 11:17:11;;;;;;;;;;;;;;;18.69;65.24;100042.69;4996637;28;935;-55
2021/05/02 11:19:40;;;;;;;;;;;;;;;18.69;65.25;100039.19;4995441;28;1967;-55
2021/05/02 11:22:07;;;;;;;;;;;;;;;18.68;65.35;100034.81;4996533;28;1002;-55
2021/05/02 11:24:52;;;;;;;;;;;;;;;18.71;65.17;100055.94;4996522;28;1053;-55
2021/05/02 11:27:25;;;;;;;;;;;;;;;18.71;65.32;100049.75;4996454;28;970;-55
2021/05/02 11:30:13;;;;;;;;;;;;;;;18.71;65.46;100049.75;4996022;28;1031;-55
2021/05/02 11:32:40;;;;;;;;;;;;;;;18.69;65.28;100050.72;4996348;28;920;-55
2021/05/02 11:35:07;;;;;;;;;;;;;;;18.70;65.29;100048.88;4996336;28;974;-55
2021/05/02 11:37:41;;;;;;;;;;;;;;;18.72;65.38;100054.09;4995874;28;1090;-55
2021/05/02 11:40:26;;;;;;;;;;;;;;;18.67;65.40;100054.56;4996155;28;1906;-55
2021/05/02 11:42:54;;;;;;;;;;;;;;;18.70;65.59;100048.88;4996058;28;1064;-56
2021/05/02 11:45:20;;;;;;;;;;;;;;;18.71;65.24;100052.44;4996088;28;1058;-55
2021/05/02 11:47:46;;;;;;;;;;;;;;;18.73;65.28;100053.13;4996167;28;1020;-55
2021/05/02 11:50:12;;;;;;;;;;;;;;;18.72;65.33;100046.94;4995799;28;1894;-56
2021/05/02 11:52:44;;;;;;;;;;;;;;;18.72;65.12;100056.78;4996018;28;1007;-56
2021/05/02 11:55:24;;;;;;;;;;;;;;;18.70;65.17;100051.56;4995626;28;1015;-56
2021/05/02 11:57:50;;;;;;;;;;;;;;;18.73;65.19;100045.09;4996486;28;1898;-55
2021/05/02 12:00:28;;;;;;;;;;;;;;;18.73;65.21;100047.75;4995457;28;1965;-56
2021/05/02 12:02:54;;;;;;;;;;;;;;;18.76;65.10;100044.75;4995708;28;1476;-55
2021/05/02 12:05:20;;;;;;;;;;;;;;;18.74;65.30;100038.72;4995521;28;1068;-55
2021/05/02 12:07:46;;;;;;;;;;;;;;;18.73;65.27;100045.09;4995607;28;1023;-55
2021/05/02 12:10:17;;;;;;;;;;;;;;;18.73;65.33;100031.69;4995380;28;1115;-55
2021/05/02 12:12:44;;;;;;;;;;;;;;;18.72;65.38;100033.53;4995699;28;975;-56
2021/05/02 12:15:10;;;;;;;;;;;;;;;18.77;65.59;100062.53;4995496;28;1020;-55
2021/05/02 12:17:37;;;;;;;;;;;;;;;18.75;65.31;100046.59;4995343;28;1032;-55
2021/05/02 12:20:04;;;;;;;;;;;;;;;18.73;65.36;100031.69;4995270;28;1887;-55
2021/05/02 12:22:30;;;;;;;;;;;;;;;18.74;65.33;100038.72;4995316;28;1043;-55
2021/05/02 12:24:56;;;;;;;;;;;;;;;18.76;65.33;100039.41;4995565;28;1034;-55
2021/05/02 12:27:22;;;;;;;;;;;;;;;18.73;65.30;100037.06;4995587;28;966;-55
2021/05/02 12:29:53;;;;;;;;;;;;;;;18.72;65.38;100030.84;4995217;28;1059;-55
2021/05/02 12:32:19;;;;;;;;;;;;;;;18.74;65.33;100030.69;4995531;28;985;-55
2021/05/02 12:34:47;;;;;;;;;;;;;;;18.72;65.35;100025.50;4995490;28;974;-55
2021/05/02 12:37:14;;;;;;;;;;;;;;;18.74;65.42;100018.16;4995169;28;1056;-55
2021/05/02 12:39:41;;;;;;;;;;;;;;;18.74;65.26;100018.16;4995381;28;1973;-55
2021/05/02 12:42:07;;;;;;;;;;;;;;;18.72;65.28;100030.00;4995366;28;990;-55
2021/05/02 12:44:35;;;;;;;;;;;;;;;18.72;65.34;100022.81;4995114;28;1187;-55
2021/05/02 12:47:02;;;;;;;;;;;;;;;18.73;65.35;100016.47;4995423;28;974;-55
2021/05/02 12:49:29;;;;;;;;;;;;;;;18.74;65.09;100001.22;4995053;28;1056;-55